Lerwick, United Kingdom
Current Conditions -  °F | °C
As of 11:50 PM on Wednesday 22 Oct 2014 (Local Time) from EGPB Reporting Station
Broken Clouds Broken Clouds  
Wind Chill: 12°   Ceiling: 1200
Heat Index: 12°   Visibility: 4mi
Dew Point: 11°   Wind: 23mph
Humidity: 94%   Direction: 210°SSW
Pressure: 29.59"   Gusts: NA
Location:  60.15°N, 1.15°W
Report Text: EGPB 222250Z 21020KT 7000 BKN012 12/11 Q1002 NOSIG
Loading
Personal Weather Stations






























Interactive Weather Map
Tropical Storm Tracking
New forecast layout! Learn more

10-Day Weather Forecast

Advertisements
Track Severe Weather on mobile